Time;durP1;ratioP1;P1;durP2;ratioP2;P2;SDS_P1;SDS_P2;PMS_P1;PMS_P2;Temp;Humidity;BMP_temperature;BMP_pressure;BME280_temperature;BME280_humidity;BME280_pressure;Samples;Min_cycle;Max_cycle;Signal;HPM_P1;HPM_P2
2023/03/12 00:01:22;;;;;;;0.88;0.88;;;;;;;4.75;90.20;100314.97;5062236;28;20026;-70
2023/03/12 00:03:49;;;;;;;0.63;0.63;;;;;;;4.80;90.56;100317.44;5049551;28;20509;-69
2023/03/12 00:06:15;;;;;;;0.30;0.30;;;;;;;4.86;90.29;100328.72;5049808;28;20033;-72
2023/03/12 00:08:41;;;;;;;0.95;0.95;;;;;;;4.72;90.42;100326.31;5047203;28;20025;-76
2023/03/12 00:11:09;;;;;;;0.40;0.40;;;;;;;4.67;90.94;100339.00;5023025;28;20083;-71
2023/03/12 00:13:34;;;;;;;0.40;0.40;;;;;;;4.49;91.07;100343.69;5049360;28;20052;-71
2023/03/12 00:16:05;;;;;;;0.57;0.57;;;;;;;4.50;91.47;100337.22;5048683;28;20033;-72
2023/03/12 00:18:31;;;;;;;0.22;0.22;;;;;;;4.56;91.07;100333.28;5040990;28;20362;-72
2023/03/12 00:20:56;;;;;;;0.55;0.55;;;;;;;4.49;91.59;100327.69;5048187;28;20104;-72
2023/03/12 00:23:22;;;;;;;1.10;0.82;;;;;;;4.56;91.94;100327.94;5065356;28;20037;-71
2023/03/12 00:25:47;;;;;;;0.40;0.40;;;;;;;4.67;90.94;100325.69;5048827;28;20028;-71
2023/03/12 00:28:12;;;;;;;0.47;0.40;;;;;;;4.69;90.83;100316.25;5044323;28;20048;-71
2023/03/12 00:30:39;;;;;;;0.80;0.80;;;;;;;4.66;90.72;100324.91;5039428;28;20060;-72
2023/03/12 00:33:05;;;;;;;0.35;0.35;;;;;;;4.67;90.75;100320.34;5049161;28;20037;-72
2023/03/12 00:35:31;;;;;;;1.13;1.05;;;;;;;4.67;90.60;100326.47;5050477;28;20037;-72
2023/03/12 00:37:56;;;;;;;0.60;0.60;;;;;;;4.57;90.77;100324.16;5046608;28;20505;-72
2023/03/12 00:40:22;;;;;;;0.45;0.45;;;;;;;4.67;91.06;100320.34;5053638;28;20037;-72
2023/03/12 00:42:47;;;;;;;0.45;0.45;;;;;;;4.59;90.87;100321.97;5065381;28;20037;-72
2023/03/12 00:45:13;;;;;;;0.43;0.43;;;;;;;4.63;90.86;100320.22;5047222;28;20036;-72
2023/03/12 00:47:38;;;;;;;0.40;0.40;;;;;;;4.68;90.98;100324.59;5031923;28;20481;-72
2023/03/12 00:50:04;;;;;;;0.47;0.47;;;;;;;4.74;90.80;100325.97;5049142;28;20037;-72
2023/03/12 00:52:29;;;;;;;0.45;0.40;;;;;;;4.66;90.65;100326.78;5049513;28;20033;-72
2023/03/12 00:54:57;;;;;;;1.20;0.57;;;;;;;4.68;91.11;100328.03;5063695;28;20025;-72
2023/03/12 00:57:23;;;;;;;0.47;0.47;;;;;;;4.69;91.05;100329.59;5042263;28;20123;-72
2023/03/12 00:59:49;;;;;;;0.30;0.30;;;;;;;4.68;90.96;100325.38;5045449;28;20100;-71
2023/03/12 01:02:14;;;;;;;0.20;0.20;;;;;;;4.63;91.48;100324.78;5035989;28;20422;-71
2023/03/12 01:04:40;;;;;;;0.40;0.40;;;;;;;4.45;91.90;100329.44;5033597;28;20055;-71
2023/03/12 01:07:05;;;;;;;0.40;0.40;;;;;;;4.49;92.16;100327.69;5048753;28;20124;-72
2023/03/12 01:09:31;;;;;;;0.43;0.43;;;;;;;4.55;91.15;100331.72;5063815;28;20114;-72
2023/03/12 01:11:56;;;;;;;0.40;0.40;;;;;;;4.55;91.24;100332.50;5052090;28;20013;-72
2023/03/12 01:14:23;;;;;;;0.52;0.52;;;;;;;4.56;91.86;100338.63;5035805;28;20086;-71
2023/03/12 01:16:48;;;;;;;0.63;0.63;;;;;;;4.59;91.68;100343.28;5052599;28;20028;-71
2023/03/12 01:19:14;;;;;;;0.82;0.82;;;;;;;4.63;91.74;100346.88;5037385;28;20414;-71
2023/03/12 01:21:39;;;;;;;0.55;0.52;;;;;;;4.70;91.14;100344.50;5047541;28;20443;-71
2023/03/12 01:24:05;;;;;;;0.90;0.63;;;;;;;4.71;91.16;100343.38;5022924;28;20025;-71
2023/03/12 01:26:30;;;;;;;0.55;0.55;;;;;;;4.74;90.94;100342.75;5026340;28;20040;-72
2023/03/12 01:28:56;;;;;;;0.32;0.32;;;;;;;4.67;91.36;100333.69;5044929;28;20033;-71
2023/03/12 01:31:21;;;;;;;0.55;0.55;;;;;;;4.70;90.69;100346.38;5045378;28;20057;-72
2023/03/12 01:33:49;;;;;;;0.55;0.55;;;;;;;4.54;91.70;100351.47;5041266;28;20030;-70
2023/03/12 01:36:18;;;;;;;0.95;0.95;;;;;;;4.53;92.34;100347.25;5049249;28;20043;-71
2023/03/12 01:38:43;;;;;;;0.57;0.57;;;;;;;4.38;92.50;100345.13;5048779;28;20032;-71
2023/03/12 01:41:09;;;;;;;1.23;0.85;;;;;;;4.28;93.31;100348.94;5053326;28;20041;-70
2023/03/12 01:43:39;;;;;;;0.30;0.30;;;;;;;4.16;94.05;100348.81;5052011;28;20032;-71
2023/03/12 01:46:23;;;;;;;0.50;0.40;;;;;;;4.31;93.89;100348.31;5052429;28;20508;-70
2023/03/12 01:48:52;;;;;;;0.30;0.30;;;;;;;4.40;94.29;100346.38;5048632;28;20494;-70
2023/03/12 01:51:19;;;;;;;0.50;0.50;;;;;;;4.42;94.13;100344.19;5048283;28;20582;-70
2023/03/12 01:53:49;;;;;;;0.50;0.50;;;;;;;4.31;94.39;100347.53;5052152;28;20432;-69
2023/03/12 01:56:18;;;;;;;0.30;0.30;;;;;;;4.25;94.56;100356.78;5038422;28;20025;-69
2023/03/12 01:58:49;;;;;;;0.47;0.47;;;;;;;4.19;95.17;100361.53;5034581;28;20033;-69
2023/03/12 02:01:18;;;;;;;0.47;0.45;;;;;;;4.34;95.43;100363.66;5048976;28;20033;-72
2023/03/12 02:03:46;;;;;;;0.88;0.88;;;;;;;4.28;94.83;100359.59;5045012;28;20037;-70
2023/03/12 02:06:13;;;;;;;0.98;0.98;;;;;;;4.19;95.46;100369.50;5034334;28;20040;-72
2023/03/12 02:08:44;;;;;;;1.35;1.00;;;;;;;4.29;95.51;100374.50;5050682;28;20104;-70
2023/03/12 02:11:11;;;;;;;1.40;1.05;;;;;;;4.11;95.73;100366.88;5051519;28;20029;-69
2023/03/12 02:13:37;;;;;;;0.98;0.45;;;;;;;4.11;95.93;100362.31;5051529;28;20120;-70
2023/03/12 02:16:03;;;;;;;0.40;0.40;;;;;;;4.06;96.33;100364.38;5044771;28;20123;-69
2023/03/12 02:18:29;;;;;;;3.20;0.50;;;;;;;3.98;97.43;100365.19;5038226;28;20034;-69
2023/03/12 02:21:21;;;;;;;0.32;0.32;;;;;;;4.08;97.09;100359.53;5045787;28;20051;-70
2023/03/12 02:23:56;;;;;;;0.73;0.63;;;;;;;4.03;96.82;100362.34;5051052;28;20078;-70
2023/03/12 02:26:24;;;;;;;0.90;0.85;;;;;;;4.11;97.67;100369.53;5050571;28;20037;-72
2023/03/12 02:28:50;;;;;;;0.20;0.20;;;;;;;4.35;96.63;100361.78;5050923;28;20040;-71
2023/03/12 02:31:20;;;;;;;1.25;0.73;;;;;;;4.43;95.72;100353.72;5034418;28;20111;-72
2023/03/12 02:33:45;;;;;;;0.60;0.60;;;;;;;4.53;95.69;100363.25;5055481;28;20041;-70
2023/03/12 02:36:11;;;;;;;0.30;0.30;;;;;;;4.65;95.19;100360.66;5049146;28;20037;-70
2023/03/12 02:38:47;;;;;;;1.02;0.88;;;;;;;4.77;94.58;100363.44;5050898;28;20031;-70
2023/03/12 02:41:28;;;;;;;0.65;0.65;;;;;;;4.86;93.49;100364.16;5050782;28;20028;-72
2023/03/12 02:44:03;;;;;;;0.40;0.40;;;;;;;4.86;93.17;100369.50;5045535;28;20036;-70
2023/03/12 02:46:44;;;;;;;1.20;0.80;;;;;;;4.87;92.80;100372.94;5049486;28;20753;-71
2023/03/12 02:49:12;;;;;;;;;;;;;;;4.88;92.60;100372.63;5052561;28;20132;-70
2023/03/12 02:51:41;;;;;;;1.95;0.95;;;;;;;4.75;93.34;100365.63;5033880;28;20467;-71
2023/03/12 02:54:08;;;;;;;0.30;0.30;;;;;;;4.76;93.08;100372.56;5051200;28;20538;-70
2023/03/12 02:56:33;;;;;;;0.70;0.70;;;;;;;4.83;93.44;100367.47;5048736;28;20143;-70
2023/03/12 02:58:59;;;;;;;0.40;0.40;;;;;;;4.79;93.34;100361.22;5049849;28;20124;-70
2023/03/12 03:01:26;;;;;;;0.60;0.60;;;;;;;4.70;93.41;100360.50;5048359;28;20123;-71
2023/03/12 03:03:53;;;;;;;0.50;0.50;;;;;;;4.72;93.87;100368.97;5033523;28;20025;-70
2023/03/12 03:06:19;;;;;;;0.55;0.55;;;;;;;4.74;93.28;100368.63;5045561;28;20056;-70
2023/03/12 03:08:45;;;;;;;0.73;0.73;;;;;;;4.76;93.17;100374.44;5040566;28;20492;-72
2023/03/12 03:11:10;;;;;;;0.30;0.30;;;;;;;4.73;92.97;100372.38;5049161;28;20734;-72
2023/03/12 03:13:36;;;;;;;0.90;0.75;;;;;;;4.75;93.43;100370.97;5048073;28;20035;-70
2023/03/12 03:16:02;;;;;;;0.30;0.30;;;;;;;4.80;92.98;100364.69;5039876;28;20036;-71
2023/03/12 03:18:29;;;;;;;0.68;0.68;;;;;;;4.79;93.16;100361.22;5047895;28;20029;-71
2023/03/12 03:21:05;;;;;;;0.65;0.65;;;;;;;4.56;93.26;100365.28;5031450;28;20037;-69
2023/03/12 03:23:32;;;;;;;0.82;0.82;;;;;;;4.61;93.53;100356.31;5063435;28;20098;-69
2023/03/12 03:25:58;;;;;;;1.23;0.60;;;;;;;4.57;93.58;100362.28;5048639;28;20590;-68
2023/03/12 03:28:25;;;;;;;0.22;0.22;;;;;;;4.58;93.30;100363.88;5049733;28;20116;-69
2023/03/12 03:30:59;;;;;;;0.40;0.40;;;;;;;4.54;93.04;100362.94;5050054;28;20036;-72
2023/03/12 03:33:25;;;;;;;0.90;0.82;;;;;;;4.45;93.52;100362.19;5048152;28;20028;-72
2023/03/12 03:35:50;;;;;;;1.30;0.65;;;;;;;4.40;93.25;100351.72;5047489;28;20036;-70
2023/03/12 03:38:16;;;;;;;0.50;0.38;;;;;;;4.32;92.91;100357.84;5048779;28;20528;-71
2023/03/12 03:40:42;;;;;;;0.95;0.65;;;;;;;4.27;93.44;100357.25;5048759;28;20390;-69
2023/03/12 03:43:08;;;;;;;1.10;1.00;;;;;;;4.25;93.10;100357.59;5065927;28;20541;-69
2023/03/12 03:45:33;;;;;;;0.55;0.55;;;;;;;4.18;92.79;100359.94;5048194;28;20171;-70
2023/03/12 03:47:59;;;;;;;0.68;0.68;;;;;;;3.93;93.67;100358.13;5049273;28;20028;-68
2023/03/12 03:50:25;;;;;;;0.45;0.43;;;;;;;4.00;94.09;100353.13;5047269;28;20130;-71
2023/03/12 03:52:50;;;;;;;0.40;0.40;;;;;;;3.88;94.35;100360.19;5030084;28;20028;-69
2023/03/12 03:55:16;;;;;;;1.08;0.57;;;;;;;3.92;94.94;100369.13;5064727;28;20087;-69
2023/03/12 03:57:42;;;;;;;0.40;0.40;;;;;;;4.01;93.98;100373.31;5049237;28;20029;-69
2023/03/12 04:00:11;;;;;;;0.47;0.47;;;;;;;3.92;94.19;100372.56;5049710;28;20068;-70
2023/03/12 04:02:40;;;;;;;1.35;0.93;;;;;;;3.99;94.31;100364.88;5033172;28;20031;-68
2023/03/12 04:05:08;;;;;;;0.50;0.50;;;;;;;3.94;94.53;100369.56;5048820;28;20029;-68
2023/03/12 04:07:34;;;;;;;0.82;0.68;;;;;;;3.87;94.53;100358.63;5043767;28;20059;-71
2023/03/12 04:09:59;;;;;;;0.30;0.30;;;;;;;3.89;94.60;100365.19;5048397;28;20498;-71
2023/03/12 04:12:26;;;;;;;0.75;0.75;;;;;;;3.99;94.74;100358.78;5064932;28;20029;-70
2023/03/12 04:14:52;;;;;;;0.40;0.40;;;;;;;3.96;94.17;100360.19;5047814;28;20033;-69
2023/03/12 04:17:18;;;;;;;0.52;0.52;;;;;;;3.98;94.47;100371.31;5040462;28;20036;-69
2023/03/12 04:19:44;;;;;;;1.33;0.65;;;;;;;4.01;94.13;100361.88;5048667;28;20493;-70
2023/03/12 04:22:10;;;;;;;0.50;0.50;;;;;;;3.99;93.52;100364.88;5046038;28;20033;-70
2023/03/12 04:24:36;;;;;;;0.50;0.50;;;;;;;3.95;93.69;100365.84;5048299;28;20037;-69
2023/03/12 04:27:01;;;;;;;0.57;0.57;;;;;;;3.88;93.36;100368.97;5048988;28;20052;-70
2023/03/12 04:29:27;;;;;;;0.57;0.57;;;;;;;3.86;93.28;100362.38;5035356;28;20048;-70
2023/03/12 04:31:53;;;;;;;0.40;0.40;;;;;;;3.77;93.17;100364.28;5067578;28;20448;-70
2023/03/12 04:34:19;;;;;;;0.75;0.75;;;;;;;3.77;93.58;100364.28;5035510;28;20029;-69
2023/03/12 04:36:47;;;;;;;1.08;0.73;;;;;;;3.88;92.83;100363.66;5061661;28;20025;-69
2023/03/12 04:39:16;;;;;;;0.45;0.45;;;;;;;3.77;92.91;100365.09;5048607;28;20044;-73
2023/03/12 04:41:42;;;;;;;0.40;0.40;;;;;;;3.83;92.78;100361.16;5051710;28;20029;-70
2023/03/12 04:44:13;;;;;;;0.40;0.40;;;;;;;3.98;92.03;100349.19;5051732;28;20086;-69
2023/03/12 04:46:41;;;;;;;0.40;0.40;;;;;;;3.83;91.51;100347.84;5040515;28;20037;-71
2023/03/12 04:49:08;;;;;;;0.45;0.45;;;;;;;3.57;92.46;100353.22;5068167;28;20044;-70
2023/03/12 04:51:35;;;;;;;0.40;0.40;;;;;;;3.74;92.32;100348.94;5051557;28;20085;-69
2023/03/12 04:54:02;;;;;;;0.30;0.30;;;;;;;3.67;92.38;100347.56;5051465;28;20107;-70
2023/03/12 04:56:28;;;;;;;0.82;0.52;;;;;;;3.64;92.37;100337.53;5025689;28;20029;-72
2023/03/12 04:58:54;;;;;;;0.73;0.73;;;;;;;3.70;91.98;100342.72;5045959;28;20397;-71
2023/03/12 05:01:26;;;;;;;0.60;0.60;;;;;;;3.47;92.54;100331.44;5051101;28;20083;-71
2023/03/12 05:03:52;;;;;;;;;;;;;;;3.40;92.60;100336.47;5054872;28;20136;-72
2023/03/12 05:06:17;;;;;;;0.55;0.55;;;;;;;3.46;92.64;100344.00;5047772;28;20011;-68
2023/03/12 05:08:43;;;;;;;1.23;0.75;;;;;;;3.43;92.73;100333.97;5051060;28;20032;-68
2023/03/12 05:11:09;;;;;;;0.63;0.63;;;;;;;3.35;92.58;100342.72;5053338;28;20107;-68
2023/03/12 05:13:34;;;;;;;0.30;0.30;;;;;;;3.26;92.57;100333.19;5053001;28;20021;-69
2023/03/12 05:16:00;;;;;;;0.50;0.50;;;;;;;3.38;91.87;100344.00;5051938;28;20049;-68
2023/03/12 05:18:26;;;;;;;0.30;0.30;;;;;;;3.30;92.19;100340.25;5032797;28;20037;-69
2023/03/12 05:21:05;;;;;;;0.98;0.50;;;;;;;3.40;92.07;100339.94;5049368;28;20481;-69
2023/03/12 05:23:31;;;;;;;0.30;0.30;;;;;;;3.32;92.07;100351.34;5053090;28;20033;-69
2023/03/12 05:25:57;;;;;;;0.28;0.28;;;;;;;3.30;91.90;100350.09;5044551;28;20045;-69
2023/03/12 05:28:27;;;;;;;0.57;0.40;;;;;;;3.25;92.10;100353.69;5051225;28;20040;-70
2023/03/12 05:30:56;;;;;;;;;;;;;;;3.28;92.18;100344.31;5031637;28;20021;-70
2023/03/12 05:33:23;;;;;;;0.32;0.32;;;;;;;3.26;92.17;100349.16;5044276;28;19917;-71
2023/03/12 05:35:49;;;;;;;0.30;0.30;;;;;;;3.25;92.73;100352.94;5042330;28;20029;-71
2023/03/12 05:38:15;;;;;;;0.50;0.50;;;;;;;3.17;92.50;100353.69;5049577;28;20561;-71
2023/03/12 05:40:41;;;;;;;0.40;0.40;;;;;;;3.24;92.25;100356.66;5067169;28;20036;-71
2023/03/12 05:43:06;;;;;;;0.40;0.40;;;;;;;3.28;92.32;100352.28;5045902;28;20105;-71
2023/03/12 05:45:32;;;;;;;0.40;0.40;;;;;;;3.33;92.38;100360.88;5043064;28;20044;-71
2023/03/12 05:47:58;;;;;;;0.55;0.55;;;;;;;3.11;91.61;100358.41;5027954;28;20362;-70
2023/03/12 05:50:25;;;;;;;0.40;0.40;;;;;;;3.13;92.68;100361.53;5043160;28;20025;-69
2023/03/12 05:52:51;;;;;;;0.30;0.30;;;;;;;3.22;92.61;100356.19;5047508;28;20025;-69
2023/03/12 05:55:17;;;;;;;0.22;0.22;;;;;;;3.23;92.08;100355.13;5051171;28;20147;-69
2023/03/12 05:57:43;;;;;;;1.00;0.50;;;;;;;3.27;92.85;100348.06;5047746;28;20120;-69
2023/03/12 06:00:12;;;;;;;0.20;0.20;;;;;;;3.32;92.22;100348.69;5048111;28;20457;-73
2023/03/12 06:02:46;;;;;;;0.30;0.30;;;;;;;2.95;92.83;100340.53;5045666;28;20040;-70
2023/03/12 06:05:12;;;;;;;0.10;0.10;;;;;;;3.01;93.38;100340.09;5024389;28;20393;-69
2023/03/12 06:07:39;;;;;;;0.63;0.63;;;;;;;3.21;93.14;100344.78;5046066;28;20061;-69
2023/03/12 06:10:05;;;;;;;0.20;0.20;;;;;;;3.18;92.88;100337.41;5034265;28;20068;-69
2023/03/12 06:12:30;;;;;;;0.82;0.80;;;;;;;3.12;93.22;100335.22;5050568;28;20634;-70
2023/03/12 06:14:57;;;;;;;0.40;0.40;;;;;;;3.29;93.06;100337.91;5050398;28;20025;-69
2023/03/12 06:17:22;;;;;;;0.35;0.35;;;;;;;3.15;92.40;100337.28;5050128;28;20040;-69
2023/03/12 06:19:51;;;;;;;0.52;0.43;;;;;;;3.20;92.41;100339.75;5050379;28;20051;-68
2023/03/12 06:22:18;;;;;;;0.35;0.35;;;;;;;3.19;92.15;100336.34;5050659;28;20047;-69
2023/03/12 06:24:46;;;;;;;0.40;0.40;;;;;;;3.27;92.27;100332.88;5050426;28;20029;-69
2023/03/12 06:27:14;;;;;;;0.30;0.30;;;;;;;3.29;92.75;100333.34;5042312;28;20845;-69
2023/03/12 06:29:40;;;;;;;0.85;0.60;;;;;;;2.92;93.41;100338.50;5030353;28;20029;-68
2023/03/12 06:32:06;;;;;;;0.40;0.40;;;;;;;2.99;94.09;100333.50;5033427;28;20405;-71
2023/03/12 06:34:31;;;;;;;0.43;0.43;;;;;;;3.18;93.48;100334.75;5033759;28;20045;-70
2023/03/12 06:36:57;;;;;;;0.40;0.35;;;;;;;3.21;92.69;100330.69;5033471;28;20033;-68
2023/03/12 06:39:22;;;;;;;0.55;0.30;;;;;;;3.25;93.00;100326.31;5051040;28;20064;-69
2023/03/12 06:41:47;;;;;;;0.35;0.35;;;;;;;3.27;92.19;100340.84;5050570;28;20047;-70
2023/03/12 06:44:13;;;;;;;0.75;0.75;;;;;;;3.31;92.67;100333.81;5051096;28;20124;-70
2023/03/12 06:46:39;;;;;;;0.60;0.60;;;;;;;3.38;92.42;100323.50;5046781;28;20029;-70
2023/03/12 06:49:05;;;;;;;0.30;0.30;;;;;;;3.34;91.92;100333.19;5047519;28;20037;-71
2023/03/12 06:51:31;;;;;;;0.28;0.28;;;;;;;3.35;90.97;100318.00;5049005;28;20047;-70
2023/03/12 06:53:56;;;;;;;0.63;0.63;;;;;;;3.13;92.43;100320.84;5049825;28;20037;-70
2023/03/12 06:56:22;;;;;;;0.40;0.40;;;;;;;3.06;92.24;100325.84;5030319;28;20033;-69
2023/03/12 06:58:47;;;;;;;0.20;0.20;;;;;;;2.88;93.20;100310.97;5045160;28;20037;-70
2023/03/12 07:01:13;;;;;;;0.30;0.30;;;;;;;3.19;93.45;100312.41;5046962;28;20061;-70
2023/03/12 07:03:38;;;;;;;0.40;0.40;;;;;;;3.36;92.66;100306.28;5040072;28;20179;-68
2023/03/12 07:06:11;;;;;;;0.85;0.85;;;;;;;3.53;91.70;100317.69;5032630;28;20037;-69
2023/03/12 07:08:36;;;;;;;0.32;0.32;;;;;;;3.59;91.47;100321.75;5038896;28;20048;-69
2023/03/12 07:11:02;;;;;;;0.55;0.55;;;;;;;3.43;91.57;100318.00;5041512;28;20440;-70
2023/03/12 07:13:28;;;;;;;0.85;0.73;;;;;;;3.30;92.97;100324.28;5039938;28;20021;-70
2023/03/12 07:15:54;;;;;;;0.30;0.30;;;;;;;3.42;92.16;100323.66;5049080;28;20032;-70
2023/03/12 07:18:19;;;;;;;0.88;0.47;;;;;;;3.55;92.17;100325.34;5043702;28;20398;-70
2023/03/12 07:20:46;;;;;;;0.30;0.30;;;;;;;3.62;91.04;100320.31;5048186;28;20037;-71
2023/03/12 07:23:12;;;;;;;0.60;0.60;;;;;;;3.49;92.04;100313.28;5047141;28;20090;-70
2023/03/12 07:25:39;;;;;;;0.30;0.30;;;;;;;3.51;92.42;100322.53;5049591;28;20021;-69
2023/03/12 07:28:05;;;;;;;0.30;0.30;;;;;;;3.59;90.89;100321.75;5046934;28;20076;-69
2023/03/12 07:30:32;;;;;;;0.60;0.60;;;;;;;3.78;91.10;100324.03;5030938;28;20425;-71
2023/03/12 07:33:06;;;;;;;0.30;0.30;;;;;;;3.87;90.48;100318.69;5062885;28;20029;-68
2023/03/12 07:35:31;;;;;;;0.57;0.57;;;;;;;3.57;91.75;100310.63;5039778;28;20571;-69
2023/03/12 07:37:58;;;;;;;0.43;0.40;;;;;;;3.95;90.56;100323.97;5039731;28;20021;-70
2023/03/12 07:40:24;;;;;;;0.70;0.50;;;;;;;3.67;89.64;100318.28;5045930;28;20163;-70
2023/03/12 07:42:50;;;;;;;0.40;0.40;;;;;;;3.76;90.27;100314.78;5043899;28;20127;-71
2023/03/12 07:45:15;;;;;;;0.32;0.25;;;;;;;3.88;89.90;100317.59;5046826;28;20037;-69
2023/03/12 07:47:41;;;;;;;0.30;0.30;;;;;;;4.03;90.08;100315.19;5044663;28;20052;-71
2023/03/12 07:50:07;;;;;;;0.30;0.30;;;;;;;4.13;89.02;100317.50;5045959;28;20037;-70
2023/03/12 07:52:32;;;;;;;0.50;0.40;;;;;;;4.04;88.08;100322.09;5049556;28;20032;-70
2023/03/12 07:54:58;;;;;;;0.32;0.30;;;;;;;3.88;89.27;100321.03;5048647;28;20718;-69
2023/03/12 07:57:24;;;;;;;0.60;0.60;;;;;;;4.18;89.50;100311.97;5046876;28;20059;-69
2023/03/12 07:59:50;;;;;;;0.40;0.40;;;;;;;4.57;87.38;100313.50;5047481;28;20033;-70
2023/03/12 08:02:15;;;;;;;1.05;0.98;;;;;;;4.66;87.36;100319.59;5048446;28;20568;-70
2023/03/12 08:04:41;;;;;;;0.40;0.40;;;;;;;4.61;86.88;100316.34;5044698;28;20040;-70
2023/03/12 08:07:06;;;;;;;0.60;0.60;;;;;;;4.74;86.75;100316.09;5047250;28;20041;-69
2023/03/12 08:09:32;;;;;;;0.40;0.40;;;;;;;5.01;85.20;100312.13;5048722;28;20049;-69
2023/03/12 08:11:58;;;;;;;0.38;0.38;;;;;;;5.35;83.38;100325.97;5048767;28;20132;-70
2023/03/12 08:14:23;;;;;;;0.40;0.40;;;;;;;4.90;83.29;100311.72;5048094;28;20045;-72
2023/03/12 08:16:48;;;;;;;0.25;0.25;;;;;;;4.96;83.32;100314.97;5048173;28;20037;-70
2023/03/12 08:19:14;;;;;;;0.30;0.30;;;;;;;4.85;83.82;100319.94;5048417;28;20033;-72
2023/03/12 08:21:39;;;;;;;0.63;0.63;;;;;;;4.69;84.69;100318.94;5044588;28;20033;-73
2023/03/12 08:24:05;;;;;;;0.40;0.40;;;;;;;5.08;84.49;100321.16;5048545;28;20648;-69
2023/03/12 08:26:30;;;;;;;0.50;0.50;;;;;;;5.58;83.69;100317.56;5047151;28;20040;-70
2023/03/12 08:28:56;;;;;;;0.40;0.40;;;;;;;5.52;83.33;100316.25;5046564;28;20029;-70
2023/03/12 08:31:22;;;;;;;0.65;0.57;;;;;;;5.95;81.99;100317.38;5037842;28;20040;-73
2023/03/12 08:33:47;;;;;;;0.50;0.50;;;;;;;5.59;80.03;100319.16;5048535;28;20043;-69
2023/03/12 08:36:13;;;;;;;1.13;0.55;;;;;;;5.65;80.88;100320.50;5030130;28;20489;-69
2023/03/12 08:38:38;;;;;;;0.45;0.45;;;;;;;5.28;80.91;100307.00;5046656;28;20536;-69
2023/03/12 08:41:04;;;;;;;1.65;0.77;;;;;;;5.24;79.76;100300.00;5044013;28;20041;-71
2023/03/12 08:43:29;;;;;;;0.28;0.28;;;;;;;5.19;80.08;100295.63;5047299;28;20043;-70
2023/03/12 08:46:00;;;;;;;0.20;0.20;;;;;;;5.32;80.10;100293.81;5047783;28;20029;-70
2023/03/12 08:48:27;;;;;;;0.35;0.35;;;;;;;5.30;79.05;100302.13;5046728;28;20033;-70
2023/03/12 08:50:57;;;;;;;0.82;0.82;;;;;;;5.36;79.49;100302.72;5043847;28;20086;-71
2023/03/12 08:53:24;;;;;;;0.30;0.30;;;;;;;5.37;79.97;100293.59;5048780;28;20033;-70
2023/03/12 08:55:53;;;;;;;0.30;0.30;;;;;;;5.44;79.59;100302.63;5047730;28;20028;-69
2023/03/12 08:58:18;;;;;;;0.28;0.28;;;;;;;5.63;79.91;100302.16;5047346;28;20033;-69
2023/03/12 09:00:44;;;;;;;0.50;0.50;;;;;;;5.70;79.02;100306.94;5044142;28;20047;-69
2023/03/12 09:03:12;;;;;;;0.20;0.20;;;;;;;5.41;78.88;100303.31;5048280;28;20021;-69
2023/03/12 09:05:38;;;;;;;0.30;0.30;;;;;;;5.62;79.14;100289.88;5043261;28;20028;-69
2023/03/12 09:08:04;;;;;;;1.10;0.63;;;;;;;5.73;78.38;100295.59;5037092;28;20033;-69
2023/03/12 09:10:29;;;;;;;1.08;0.70;;;;;;;5.67;78.26;100296.91;5046586;28;20611;-70
2023/03/12 09:12:54;;;;;;;0.30;0.30;;;;;;;5.89;77.59;100304.53;5044353;28;20028;-69
2023/03/12 09:15:20;;;;;;;0.50;0.50;;;;;;;5.77;77.10;100291.16;5036483;28;20033;-71
2023/03/12 09:17:46;;;;;;;0.47;0.47;;;;;;;5.53;78.31;100285.75;5042863;28;20079;-70
2023/03/12 09:20:13;;;;;;;0.30;0.30;;;;;;;5.55;78.56;100276.31;5051096;28;20250;-70
2023/03/12 09:22:39;;;;;;;0.30;0.30;;;;;;;5.54;78.84;100261.38;5033631;28;20036;-69
2023/03/12 09:25:07;;;;;;;0.50;0.50;;;;;;;5.43;78.70;100261.03;5046993;28;20040;-69
2023/03/12 09:27:41;;;;;;;0.20;0.20;;;;;;;5.28;79.63;100266.97;5050037;28;20124;-70
2023/03/12 09:30:09;;;;;;;0.40;0.40;;;;;;;5.42;78.51;100274.69;5051270;28;20041;-69
2023/03/12 09:32:35;;;;;;;0.30;0.30;;;;;;;5.29;78.28;100263.22;5050699;28;20056;-69
2023/03/12 09:35:00;;;;;;;0.25;0.25;;;;;;;5.65;77.21;100262.53;5051005;28;20060;-70
2023/03/12 09:37:26;;;;;;;0.30;0.30;;;;;;;5.86;76.46;100267.81;5050343;28;20064;-70
2023/03/12 09:39:52;;;;;;;0.20;0.20;;;;;;;6.11;76.56;100275.53;5041408;28;20215;-69
2023/03/12 09:42:29;;;;;;;0.32;0.32;;;;;;;5.91;75.52;100265.72;5027196;28;20699;-69
2023/03/12 09:44:59;;;;;;;0.30;0.30;;;;;;;6.11;73.55;100251.47;5045007;28;20044;-69
2023/03/12 09:47:29;;;;;;;1.10;0.50;;;;;;;5.88;73.03;100241.56;5031061;28;20059;-69
2023/03/12 09:50:27;;;;;;;0.55;0.55;;;;;;;5.74;74.11;100243.72;5041709;28;20269;-69
2023/03/12 09:53:00;;;;;;;0.20;0.20;;;;;;;5.49;75.88;100234.91;5047264;28;20646;-68
2023/03/12 09:55:31;;;;;;;0.40;0.40;;;;;;;6.02;74.78;100244.69;5033802;28;20030;-70
2023/03/12 09:57:58;;;;;;;0.30;0.30;;;;;;;5.64;75.09;100231.59;5035320;28;20065;-70
2023/03/12 10:00:29;;;;;;;0.50;0.50;;;;;;;5.66;77.18;100220.56;5037145;28;20807;-70
2023/03/12 10:02:54;;;;;;;;;;;;;;;5.96;75.60;100219.28;5045208;28;20048;-69
2023/03/12 10:05:30;;;;;;;0.30;0.30;;;;;;;6.06;74.08;100203.56;5043492;28;19912;-69
2023/03/12 10:08:22;;;;;;;1.55;0.70;;;;;;;5.78;73.91;100208.00;5024000;28;20482;-69
2023/03/12 10:11:20;;;;;;;1.48;1.38;;;;;;;6.11;73.95;100197.22;5006439;28;20056;-71
2023/03/12 10:14:07;;;;;;;0.20;0.20;;;;;;;6.43;71.53;100177.56;5046914;28;20476;-68
2023/03/12 10:16:44;;;;;;;0.30;0.30;;;;;;;6.04;72.76;100179.06;5016937;28;20033;-69
2023/03/12 10:19:16;;;;;;;0.52;0.50;;;;;;;6.36;73.25;100175.47;5051609;28;20037;-71
2023/03/12 10:21:59;;;;;;;0.40;0.40;;;;;;;6.74;72.84;100169.66;5045746;28;20044;-70
2023/03/12 10:24:55;;;;;;;0.43;0.43;;;;;;;6.73;70.55;100146.72;5027202;28;20043;-69
2023/03/12 10:27:22;;;;;;;0.38;0.30;;;;;;;6.79;68.25;100123.16;5067917;22;20063;-66
2023/03/12 10:29:51;;;;;;;0.50;0.50;;;;;;;6.90;68.01;100119.63;5037558;28;20083;-65
2023/03/12 10:32:40;;;;;;;1.25;0.63;;;;;;;7.11;63.41;100122.84;5053705;28;20033;-65
2023/03/12 10:35:17;;;;;;;0.35;0.32;;;;;;;7.09;62.82;100122.44;5042475;28;20127;-66
2023/03/12 10:37:47;;;;;;;0.40;0.40;;;;;;;7.18;61.69;100117.66;5042135;28;20041;-67
2023/03/12 10:40:16;;;;;;;0.47;0.47;;;;;;;7.26;61.94;100119.41;5033847;28;20033;-66
2023/03/12 10:42:41;;;;;;;0.52;0.52;;;;;;;7.30;61.77;100106.09;5038448;28;21481;-67
2023/03/12 10:45:13;;;;;;;0.57;0.57;;;;;;;7.05;61.03;100110.84;5036297;28;20040;-67
2023/03/12 10:47:41;;;;;;;0.43;0.40;;;;;;;7.30;60.84;100112.25;5029611;28;20060;-68
2023/03/12 10:50:18;;;;;;;0.30;0.30;;;;;;;7.24;58.96;100094.88;5025642;28;20047;-68
2023/03/12 10:52:45;;;;;;;0.45;0.40;;;;;;;7.49;60.12;100098.13;5026302;28;20033;-68
2023/03/12 10:55:48;;;;;;;0.70;0.45;;;;;;;7.24;59.50;100096.78;5019957;28;20744;-68
2023/03/12 10:58:24;;;;;;;1.00;0.60;;;;;;;7.59;59.28;100083.47;4964334;28;20047;-66
2023/03/12 11:00:58;;;;;;;0.30;0.30;;;;;;;7.58;59.46;100081.88;4971270;28;20046;-66
2023/03/12 11:03:25;;;;;;;0.25;0.25;;;;;;;7.79;60.16;100079.69;4982822;28;20053;-67
2023/03/12 11:05:55;;;;;;;0.65;0.65;;;;;;;7.98;58.30;100077.81;4963078;28;20152;-67
2023/03/12 11:08:28;;;;;;;0.73;0.73;;;;;;;7.78;56.51;100072.78;4966300;28;20530;-66
2023/03/12 11:10:55;;;;;;;1.00;0.60;;;;;;;7.55;55.70;100069.97;4978650;28;20038;-68
2023/03/12 11:13:30;;;;;;;0.35;0.35;;;;;;;7.40;57.02;100062.72;4972061;28;20038;-68
2023/03/12 11:15:58;;;;;;;0.20;0.20;;;;;;;7.11;58.60;100061.28;4953710;28;20047;-68
2023/03/12 11:18:28;;;;;;;0.60;0.60;;;;;;;7.22;58.61;100045.47;4969766;28;20659;-68
2023/03/12 11:21:12;;;;;;;0.50;0.50;;;;;;;7.27;58.23;100059.38;4975580;28;20023;-68
2023/03/12 11:23:58;;;;;;;0.75;0.40;;;;;;;7.23;57.79;100050.50;4981982;28;20041;-68
2023/03/12 11:26:34;;;;;;;0.45;0.45;;;;;;;7.14;57.16;100063.25;4940057;28;20052;-68
2023/03/12 11:29:18;;;;;;;0.40;0.40;;;;;;;7.29;57.08;100073.22;4974677;28;20047;-68
2023/03/12 11:32:03;;;;;;;0.50;0.50;;;;;;;7.30;56.83;100084.69;4968119;28;20490;-67
2023/03/12 11:34:33;;;;;;;0.65;0.50;;;;;;;6.80;57.07;100074.66;4988763;28;20490;-67
2023/03/12 11:37:35;;;;;;;0.60;0.60;;;;;;;6.75;56.28;100087.50;5018100;28;20033;-68
2023/03/12 11:40:20;;;;;;;0.60;0.60;;;;;;;6.80;56.91;100077.31;5038871;28;20106;-66